Time;durP1;ratioP1;P1;durP2;ratioP2;P2;SDS_P1;SDS_P2;PMS_P1;PMS_P2;Temp;Humidity;BMP_temperature;BMP_pressure;BME280_temperature;BME280_humidity;BME280_pressure;Samples;Min_cycle;Max_cycle;Signal;HPM_P1;HPM_P2
2022/12/11 00:00:21;;;;;;;67.50;20.30;;;-0.90;99.90;;;;;;5031906;28;20672;-80
2022/12/11 00:02:47;;;;;;;67.53;20.33;;;-0.90;99.90;;;;;;5028173;28;20041;-80
2022/12/11 00:05:13;;;;;;;64.55;19.63;;;-0.90;99.90;;;;;;5043349;28;20040;-80
2022/12/11 00:07:38;;;;;;;70.78;19.70;;;-0.90;99.90;;;;;;5019360;28;20071;-80
2022/12/11 00:10:05;;;;;;;71.97;18.67;;;-0.90;99.90;;;;;;5037078;28;20059;-81
2022/12/11 00:12:31;;;;;;;63.25;18.70;;;-0.90;99.90;;;;;;5044559;28;20048;-80
2022/12/11 00:14:57;;;;;;;69.35;18.98;;;-0.80;99.90;;;;;;5043184;28;20048;-80
2022/12/11 00:17:23;;;;;;;65.68;17.73;;;0.50;99.90;;;;;;5034492;28;21226;-80
2022/12/11 00:19:48;;;;;;;60.80;19.20;;;0.00;99.90;;;;;;5043203;28;20538;-80
2022/12/11 00:22:15;;;;;;;73.18;19.05;;;0.10;99.90;;;;;;5041661;28;20074;-80
2022/12/11 00:24:41;;;;;;;69.38;17.25;;;0.00;99.90;;;;;;5028032;28;20569;-80
2022/12/11 00:27:07;;;;;;;83.07;20.10;;;-0.70;99.90;;;;;;5040276;28;20134;-80
2022/12/11 00:29:32;;;;;;;68.93;17.77;;;-0.20;99.90;;;;;;5057607;28;20114;-81
2022/12/11 00:31:58;;;;;;;71.47;19.30;;;-0.80;99.90;;;;;;5044097;28;20068;-81
2022/12/11 00:34:24;;;;;;;72.63;18.20;;;-0.80;99.90;;;;;;5044307;28;20033;-81
2022/12/11 00:36:50;;;;;;;77.80;19.27;;;-0.70;99.90;;;;;;5029919;28;20051;-81
2022/12/11 00:39:16;;;;;;;64.45;17.85;;;-0.80;99.90;;;;;;5026320;28;20053;-82
2022/12/11 00:41:42;;;;;;;80.38;20.10;;;-0.70;99.90;;;;;;5021158;28;20090;-81
2022/12/11 00:44:07;;;;;;;71.72;20.75;;;-0.70;99.90;;;;;;5021149;28;20079;-82
2022/12/11 00:46:33;;;;;;;85.85;20.33;;;-0.70;99.90;;;;;;5019756;28;20506;-81
2022/12/11 00:48:59;;;;;;;72.60;20.05;;;-0.70;99.90;;;;;;5040354;28;20045;-81
2022/12/11 00:51:25;;;;;;;61.65;19.67;;;-0.40;99.90;;;;;;5054416;28;20076;-81
2022/12/11 00:53:51;;;;;;;71.32;18.40;;;-0.50;99.90;;;;;;5019987;28;20071;-80
2022/12/11 00:56:20;;;;;;;64.82;19.02;;;-0.10;99.90;;;;;;5040284;28;20616;-82
2022/12/11 00:58:47;;;;;;;69.85;19.05;;;-0.70;99.90;;;;;;5020107;28;20438;-80
2022/12/11 01:01:15;;;;;;;69.07;19.58;;;0.10;99.90;;;;;;5029420;28;20363;-81
2022/12/11 01:03:41;;;;;;;69.22;18.17;;;-0.40;99.90;;;;;;5039552;28;20055;-81
2022/12/11 01:06:07;;;;;;;73.53;18.95;;;-0.70;99.90;;;;;;5032378;28;20049;-81
2022/12/11 01:08:33;;;;;;;64.78;18.00;;;-0.70;99.90;;;;;;5037674;28;20094;-81
2022/12/11 01:11:05;;;;;;;64.78;18.42;;;-0.70;99.90;;;;;;5040348;28;20051;-82
2022/12/11 01:13:31;;;;;;;69.32;19.40;;;-0.70;99.90;;;;;;5055209;28;20045;-81
2022/12/11 01:15:56;;;;;;;67.82;18.58;;;-0.60;99.90;;;;;;5060137;28;20048;-82
2022/12/11 01:18:22;;;;;;;66.38;18.73;;;-0.60;99.90;;;;;;5024068;28;20037;-82
2022/12/11 01:20:48;;;;;;;64.47;18.90;;;-0.60;99.90;;;;;;5044957;28;20127;-81
2022/12/11 01:23:15;;;;;;;67.28;18.52;;;-0.60;99.90;;;;;;5040700;28;20041;-82
2022/12/11 01:25:41;;;;;;;74.95;18.88;;;-0.60;99.90;;;;;;5038367;28;20094;-81
2022/12/11 01:28:07;;;;;;;73.40;20.85;;;-0.60;99.90;;;;;;5026461;28;20049;-82
2022/12/11 01:30:33;;;;;;;66.47;18.45;;;-0.60;99.90;;;;;;5039079;28;20052;-80
2022/12/11 01:32:59;;;;;;;67.43;19.55;;;-0.60;99.90;;;;;;5021398;28;20045;-81
2022/12/11 01:35:25;;;;;;;73.18;20.02;;;-0.60;99.90;;;;;;5054398;28;20060;-81
2022/12/11 01:37:51;;;;;;;75.82;20.17;;;-0.60;99.90;;;;;;5036727;28;20033;-81
2022/12/11 01:40:19;;;;;;;79.82;20.70;;;-0.50;99.90;;;;;;5046826;28;20067;-81
2022/12/11 01:42:45;;;;;;;81.20;20.83;;;-0.50;99.90;;;;;;5059170;28;20735;-82
2022/12/11 01:45:28;;;;;;;72.00;20.48;;;-0.50;99.90;;;;;;5061252;28;20167;-82
2022/12/11 01:48:19;;;;;;;72.10;19.65;;;-0.50;99.90;;;;;;5043785;28;20443;-81
2022/12/11 01:51:03;;;;;;;71.57;18.45;;;-0.50;99.90;;;;;;5042355;28;20463;-81
2022/12/11 01:53:33;;;;;;;83.10;20.35;;;-0.50;99.90;;;;;;5028093;28;20128;-81
2022/12/11 01:56:01;;;;;;;71.70;20.23;;;-0.50;99.90;;;;;;5048616;28;20413;-81
2022/12/11 01:58:32;;;;;;;85.68;22.38;;;-0.50;99.90;;;;;;5045187;28;20056;-81
2022/12/11 02:00:59;;;;;;;83.60;21.65;;;-0.50;99.90;;;;;;5048517;28;20075;-82
2022/12/11 02:03:24;;;;;;;87.90;22.95;;;-0.50;99.90;;;;;;5041217;28;20044;-82
2022/12/11 02:05:51;;;;;;;90.45;24.05;;;-0.40;99.90;;;;;;5032683;28;20140;-81
2022/12/11 02:08:20;;;;;;;70.65;20.63;;;-0.50;99.90;;;;;;5045419;28;20756;-82
2022/12/11 02:10:58;;;;;;;83.70;22.55;;;-0.50;99.90;;;;;;5011357;28;20072;-82
2022/12/11 02:13:39;;;;;;;81.40;20.23;;;-0.40;99.90;;;;;;5060966;28;20040;-82
2022/12/11 02:16:36;;;;;;;80.43;20.42;;;-0.40;99.90;;;;;;5029079;28;20040;-82
2022/12/11 02:19:17;;;;;;;76.32;20.92;;;-0.40;99.90;;;;;;5037123;28;20141;-82
2022/12/11 02:21:50;;;;;;;79.30;21.58;;;-0.40;99.90;;;;;;5037337;28;20037;-81
2022/12/11 02:25:02;;;;;;;86.80;20.27;;;-0.40;99.90;;;;;;5051202;28;20097;-82
2022/12/11 02:27:42;;;;;;;72.88;19.63;;;-0.40;99.90;;;;;;5039063;28;20469;-81
2022/12/11 02:30:12;;;;;;;76.88;20.52;;;-0.40;99.90;;;;;;5037132;28;20444;-82
2022/12/11 02:32:57;;;;;;;88.50;21.25;;;-0.40;99.90;;;;;;5033517;28;20495;-82
2022/12/11 02:35:40;;;;;;;76.53;19.83;;;-0.40;99.90;;;;;;5032740;28;20706;-81
2022/12/11 02:38:18;;;;;;;90.15;22.50;;;-0.40;99.90;;;;;;5058355;28;20040;-82
2022/12/11 02:40:48;;;;;;;80.50;20.05;;;-0.40;99.90;;;;;;5024160;28;20044;-82
2022/12/11 02:43:16;;;;;;;73.28;20.00;;;-0.30;99.90;;;;;;5056386;28;20048;-82
2022/12/11 02:45:44;;;;;;;80.50;21.00;;;-0.30;99.90;;;;;;5057400;28;20374;-82
2022/12/11 02:48:12;;;;;;;82.70;22.73;;;-0.30;99.90;;;;;;5036020;28;20044;-82
2022/12/11 02:50:42;;;;;;;79.47;21.45;;;-0.30;99.90;;;;;;5038080;28;20068;-82
2022/12/11 02:53:11;;;;;;;68.50;15.95;;;-0.30;99.90;;;;;;5034299;28;20040;-81
2022/12/11 02:55:39;;;;;;;75.95;20.52;;;-0.30;99.90;;;;;;5046013;28;20048;-82
2022/12/11 02:58:11;;;;;;;88.80;21.13;;;-0.30;99.90;;;;;;5032278;28;20044;-82
2022/12/11 03:00:37;;;;;;;86.32;20.58;;;-0.30;99.90;;;;;;5022803;28;20483;-82
2022/12/11 03:03:04;;;;;;;67.20;18.45;;;-0.30;99.90;;;;;;5033998;28;20070;-81
2022/12/11 03:05:30;;;;;;;81.80;20.25;;;-0.30;99.90;;;;;;5038143;28;20052;-82
2022/12/11 03:07:56;;;;;;;89.22;19.48;;;0.70;99.90;;;;;;5034363;28;20676;-82
2022/12/11 03:10:22;;;;;;;80.78;19.05;;;0.30;99.90;;;;;;5039293;28;20127;-81
2022/12/11 03:12:52;;;;;;;73.78;19.42;;;0.70;99.90;;;;;;5059082;28;20127;-82
2022/12/11 03:15:20;;;;;;;77.38;20.65;;;-0.20;99.90;;;;;;5034401;28;20040;-81
2022/12/11 03:18:08;;;;;;;76.60;19.95;;;-0.20;99.90;;;;;;5034232;28;20051;-81
2022/12/11 03:20:42;;;;;;;83.35;19.23;;;-0.20;99.90;;;;;;5024085;28;20464;-82
2022/12/11 03:23:07;;;;;;;80.70;20.33;;;-0.20;99.90;;;;;;5022461;28;20048;-81
2022/12/11 03:26:00;;;;;;;89.60;20.27;;;0.30;99.90;;;;;;5044405;28;20045;-82
2022/12/11 03:28:36;;;;;;;87.28;19.17;;;-0.20;99.90;;;;;;5021197;28;20083;-82
2022/12/11 03:31:08;;;;;;;76.78;19.13;;;-0.20;99.90;;;;;;5037397;28;20048;-82
2022/12/11 03:33:39;;;;;;;81.03;19.83;;;-0.20;99.90;;;;;;5037749;28;20051;-82
2022/12/11 03:36:09;;;;;;;84.75;20.73;;;-0.20;99.90;;;;;;5011856;28;20056;-82
2022/12/11 03:38:55;;;;;;;77.45;19.17;;;-0.10;99.90;;;;;;5030528;28;20044;-81
2022/12/11 03:41:25;;;;;;;75.53;19.63;;;-0.20;99.90;;;;;;5048995;28;20047;-82
2022/12/11 03:43:53;;;;;;;74.68;17.67;;;-0.20;99.90;;;;;;5037697;28;20039;-81
2022/12/11 03:46:22;;;;;;;78.32;19.33;;;0.00;99.90;;;;;;5052213;28;20866;-81
2022/12/11 03:48:49;;;;;;;68.85;18.23;;;0.90;99.90;;;;;;5036192;28;20049;-81
2022/12/11 03:51:16;;;;;;;81.45;18.98;;;-0.20;99.90;;;;;;5034943;28;20514;-81
2022/12/11 03:53:43;;;;;;;68.22;20.15;;;-0.10;99.90;;;;;;5024369;28;20497;-81
2022/12/11 03:56:11;;;;;;;79.22;19.20;;;-0.10;99.90;;;;;;5038426;28;20087;-81
2022/12/11 03:58:37;;;;;;;73.25;18.08;;;-0.10;99.90;;;;;;5029079;28;20410;-81
2022/12/11 04:01:07;;;;;;;65.07;18.05;;;-0.10;99.90;;;;;;5024996;28;20041;-81
2022/12/11 04:03:33;;;;;;;65.53;18.65;;;-0.10;99.90;;;;;;5041759;28;20056;-82
2022/12/11 04:05:58;;;;;;;66.63;17.55;;;-0.10;99.90;;;;;;5020504;28;20041;-81
2022/12/11 04:08:24;;;;;;;72.97;17.92;;;-0.10;99.90;;;;;;5042133;28;20038;-81
2022/12/11 04:11:33;;;;;;;67.25;17.42;;;-0.10;99.90;;;;;;5048228;28;20091;-81
2022/12/11 04:13:37;;;;;;;80.53;18.38;;;-0.10;99.90;;;;;;5055496;28;20053;-81
2022/12/11 04:16:03;;;;;;;70.55;18.73;;;-0.10;99.90;;;;;;5072533;28;20067;-82
2022/12/11 04:24:16;;;;;;;70.75;18.10;;;0.70;99.90;;;;;;5043783;28;20118;-81
2022/12/11 04:26:46;;;;;;;71.47;17.50;;;0.00;99.90;;;;;;5067482;28;20112;-81
2022/12/11 04:29:13;;;;;;;73.53;18.67;;;0.00;99.90;;;;;;5067939;28;20041;-82
2022/12/11 04:31:39;;;;;;;75.85;18.60;;;0.00;99.90;;;;;;5065794;28;20025;-80
2022/12/11 04:34:05;;;;;;;77.43;18.60;;;0.00;99.90;;;;;;5063431;28;20033;-81
2022/12/11 04:36:31;;;;;;;75.53;17.73;;;0.00;99.90;;;;;;5042155;28;20044;-82
2022/12/11 04:38:57;;;;;;;69.10;17.50;;;0.00;99.90;;;;;;5027782;28;20049;-82
2022/12/11 04:41:23;;;;;;;81.85;18.35;;;0.70;99.90;;;;;;5024545;28;20563;-82
2022/12/11 04:43:49;;;;;;;80.03;18.95;;;0.00;99.90;;;;;;5058349;28;20566;-81
2022/12/11 04:46:20;;;;;;;84.28;19.25;;;0.00;99.90;;;;;;5064725;28;20080;-82
2022/12/11 04:48:46;;;;;;;77.13;18.27;;;0.20;99.90;;;;;;5038054;28;20064;-82
2022/12/11 04:51:13;;;;;;;73.28;18.85;;;0.00;99.90;;;;;;5040729;28;20079;-82
2022/12/11 04:53:39;;;;;;;79.43;19.30;;;0.00;99.90;;;;;;5040345;28;20093;-81
2022/12/11 04:56:07;;;;;;;74.38;18.42;;;0.00;99.90;;;;;;5039141;28;20056;-82
2022/12/11 04:58:34;;;;;;;76.95;18.15;;;0.10;99.90;;;;;;5041706;28;20037;-82
2022/12/11 05:01:06;;;;;;;80.00;20.20;;;0.10;99.90;;;;;;5035164;28;20045;-82
2022/12/11 05:03:31;;;;;;;;;;;0.00;99.90;;;;;;5014205;28;20045;-82
2022/12/11 05:05:57;;;;;;;67.47;17.92;;;0.00;99.90;;;;;;5025929;28;19932;-82
2022/12/11 05:08:23;;;;;;;71.88;19.30;;;0.00;99.90;;;;;;5036341;28;20043;-82
2022/12/11 05:11:00;;;;;;;86.03;19.90;;;0.00;99.90;;;;;;5048019;28;20086;-81
2022/12/11 05:13:27;;;;;;;71.13;18.85;;;0.00;99.90;;;;;;5040570;28;20108;-82
2022/12/11 05:15:53;;;;;;;72.47;18.83;;;0.80;99.90;;;;;;5044835;28;20052;-82
2022/12/11 05:18:19;;;;;;;82.35;19.30;;;0.00;99.90;;;;;;5042965;28;20118;-82
2022/12/11 05:20:53;;;;;;;67.18;18.13;;;0.10;99.90;;;;;;5020829;28;20100;-82
2022/12/11 05:23:19;;;;;;;72.70;18.98;;;0.10;99.90;;;;;;5018371;28;20045;-81
2022/12/11 05:25:51;;;;;;;74.45;19.13;;;0.10;99.90;;;;;;5026919;28;20056;-82
2022/12/11 05:28:17;;;;;;;68.47;19.10;;;1.30;99.90;;;;;;5033049;28;20067;-82
2022/12/11 05:30:43;;;;;;;75.32;19.80;;;1.00;99.90;;;;;;5034970;28;20112;-82
2022/12/11 05:33:08;;;;;;;83.57;19.52;;;0.10;99.90;;;;;;5030532;28;20037;-82
2022/12/11 05:35:34;;;;;;;76.28;19.45;;;0.10;99.90;;;;;;5040837;28;20107;-82
2022/12/11 05:38:00;;;;;;;78.93;18.77;;;0.90;99.90;;;;;;5030666;28;20045;-82
2022/12/11 05:40:26;;;;;;;79.88;21.55;;;0.10;99.90;;;;;;5038502;28;20041;-81
2022/12/11 05:42:51;;;;;;;77.60;19.85;;;0.20;99.90;;;;;;5033801;28;20076;-82
2022/12/11 05:45:17;;;;;;;70.68;19.70;;;0.30;99.90;;;;;;5014928;28;20119;-82
2022/12/11 05:47:43;;;;;;;67.82;18.75;;;0.10;99.90;;;;;;5012115;28;20044;-82
2022/12/11 05:50:09;;;;;;;64.85;19.00;;;0.10;99.90;;;;;;5054695;28;20044;-82
2022/12/11 05:52:36;;;;;;;72.40;20.05;;;0.10;99.90;;;;;;5022312;28;20048;-82
2022/12/11 05:55:02;;;;;;;78.18;20.27;;;0.10;99.90;;;;;;5052121;28;20040;-82
2022/12/11 05:57:27;;;;;;;78.55;18.77;;;0.10;99.90;;;;;;5043116;28;20040;-82
2022/12/11 05:59:53;;;;;;;84.28;21.05;;;0.10;99.90;;;;;;5056588;28;20068;-82
2022/12/11 06:02:19;;;;;;;80.50;19.70;;;0.10;99.90;;;;;;5025553;28;20045;-82
2022/12/11 06:04:44;;;;;;;69.10;18.92;;;0.10;99.90;;;;;;5033537;28;20505;-82
2022/12/11 06:07:10;;;;;;;87.70;19.65;;;0.70;99.90;;;;;;5032091;28;20049;-82
2022/12/11 06:09:39;;;;;;;77.30;20.20;;;0.20;99.90;;;;;;5030702;28;20401;-82
2022/12/11 06:12:05;;;;;;;72.88;18.48;;;0.40;99.90;;;;;;5022858;28;20040;-83
2022/12/11 06:14:31;;;;;;;77.57;20.67;;;0.10;99.90;;;;;;5037814;28;20051;-82
2022/12/11 06:16:56;;;;;;;79.93;19.38;;;0.40;99.90;;;;;;5039404;28;20041;-82
2022/12/11 06:19:22;;;;;;;73.70;20.10;;;0.10;99.90;;;;;;5037968;28;20049;-82
2022/12/11 06:21:48;;;;;;;80.13;19.50;;;0.10;99.90;;;;;;5036630;28;20054;-83
2022/12/11 06:24:14;;;;;;;85.40;20.80;;;0.10;99.90;;;;;;5031997;28;20370;-82
2022/12/11 06:26:39;;;;;;;71.57;18.55;;;0.10;99.90;;;;;;5038986;28;20044;-82
2022/12/11 06:29:06;;;;;;;75.53;19.05;;;0.10;99.90;;;;;;5038734;28;20067;-82
2022/12/11 06:31:32;;;;;;;80.35;20.23;;;0.10;99.90;;;;;;5021831;28;20052;-82
2022/12/11 06:33:58;;;;;;;82.32;19.85;;;0.10;99.90;;;;;;5037066;28;20040;-82
2022/12/11 06:36:24;;;;;;;76.57;18.90;;;0.20;99.90;;;;;;5034808;28;20619;-82
2022/12/11 06:38:50;;;;;;;74.55;18.63;;;0.10;99.90;;;;;;5052531;28;20061;-82
2022/12/11 06:41:16;;;;;;;69.18;18.58;;;0.20;99.90;;;;;;5016010;28;20449;-82
2022/12/11 06:43:42;;;;;;;77.47;18.17;;;0.20;99.90;;;;;;5055787;28;20028;-82
2022/12/11 06:46:14;;;;;;;72.70;19.30;;;0.20;99.90;;;;;;5035343;28;20045;-83
2022/12/11 06:48:43;;;;;;;69.10;18.73;;;0.20;99.90;;;;;;5055626;28;20071;-82
2022/12/11 06:51:12;;;;;;;70.53;17.65;;;0.20;99.90;;;;;;5022814;28;20048;-82
2022/12/11 06:53:39;;;;;;;72.07;19.25;;;0.20;99.90;;;;;;5058742;28;20032;-82
2022/12/11 06:56:08;;;;;;;74.68;18.42;;;1.20;99.90;;;;;;5043241;28;20094;-82
2022/12/11 06:58:35;;;;;;;72.05;18.38;;;0.20;99.90;;;;;;5014273;28;20060;-83
2022/12/11 07:01:02;;;;;;;67.78;18.05;;;0.10;99.90;;;;;;5018421;28;20044;-82
2022/12/11 07:03:28;;;;;;;68.22;18.35;;;0.20;99.90;;;;;;5056771;28;20124;-82
2022/12/11 07:05:58;;;;;;;78.05;19.23;;;0.20;99.90;;;;;;5019677;28;20147;-82
2022/12/11 07:08:24;;;;;;;61.70;17.58;;;0.20;99.90;;;;;;5025867;28;20074;-82
2022/12/11 07:10:49;;;;;;;81.28;19.10;;;-0.10;99.90;;;;;;5018873;28;20614;-82
2022/12/11 07:13:15;;;;;;;77.20;17.80;;;0.20;99.90;;;;;;5019001;28;20144;-82
2022/12/11 07:15:41;;;;;;;75.53;17.75;;;0.20;99.90;;;;;;5037019;28;20098;-82
2022/12/11 07:18:07;;;;;;;64.72;17.77;;;0.50;99.90;;;;;;5025077;28;20055;-82
2022/12/11 07:20:33;;;;;;;68.55;19.92;;;0.20;99.90;;;;;;5022478;28;20047;-83
2022/12/11 07:22:59;;;;;;;79.80;19.13;;;0.20;99.90;;;;;;5024288;28;20044;-82
2022/12/11 07:25:24;;;;;;;64.07;17.50;;;0.30;99.90;;;;;;5033809;28;20149;-83
2022/12/11 07:27:50;;;;;;;71.22;18.63;;;0.20;99.90;;;;;;5020617;28;20766;-83
2022/12/11 07:30:16;;;;;;;61.55;16.63;;;0.20;99.90;;;;;;5034159;28;20051;-83
2022/12/11 07:32:41;;;;;;;66.72;18.83;;;0.20;99.90;;;;;;5064057;28;20174;-82
2022/12/11 07:35:08;;;;;;;76.97;19.70;;;0.30;99.90;;;;;;5037945;28;20174;-82
2022/12/11 07:37:33;;;;;;;65.72;16.58;;;0.30;99.90;;;;;;5057612;28;20043;-83
2022/12/11 07:39:59;;;;;;;69.47;18.27;;;0.60;99.90;;;;;;5025157;28;20052;-82
2022/12/11 07:42:25;;;;;;;71.57;17.98;;;0.80;99.90;;;;;;5035396;28;20216;-83
2022/12/11 07:44:51;;;;;;;72.28;18.38;;;0.20;99.90;;;;;;5047318;28;20108;-82
2022/12/11 07:47:16;;;;;;;67.85;18.05;;;0.30;99.90;;;;;;5042225;28;20049;-82
2022/12/11 07:49:42;;;;;;;75.68;19.50;;;0.50;99.90;;;;;;5038283;28;20059;-83
2022/12/11 07:52:08;;;;;;;74.47;18.90;;;0.50;99.90;;;;;;5041136;28;20041;-83
2022/12/11 07:54:34;;;;;;;68.53;18.85;;;0.50;99.90;;;;;;5038380;28;20044;-83
2022/12/11 07:57:03;;;;;;;77.55;20.10;;;0.20;99.90;;;;;;5039706;28;20456;-83
2022/12/11 07:59:29;;;;;;;74.72;18.48;;;0.20;99.90;;;;;;5040723;28;20196;-83
2022/12/11 08:01:56;;;;;;;78.68;20.60;;;0.30;99.90;;;;;;5056870;28;20112;-82
2022/12/11 08:04:21;;;;;;;67.20;19.27;;;0.20;99.90;;;;;;5043822;28;20048;-82
2022/12/11 08:06:48;;;;;;;75.22;19.52;;;0.20;99.90;;;;;;5019950;28;20043;-83
2022/12/11 08:09:14;;;;;;;70.90;18.08;;;1.20;99.90;;;;;;5024046;28;20044;-82
2022/12/11 08:11:40;;;;;;;70.65;19.27;;;0.20;99.90;;;;;;5046660;28;20077;-83
2022/12/11 08:14:07;;;;;;;68.47;19.02;;;1.30;99.90;;;;;;5026703;28;20062;-82
2022/12/11 08:16:34;;;;;;;76.75;18.65;;;0.10;99.90;;;;;;5025318;28;20141;-83
2022/12/11 08:19:00;;;;;;;82.28;19.58;;;0.40;99.90;;;;;;5034168;28;20045;-83
2022/12/11 08:21:28;;;;;;;62.85;18.10;;;0.20;99.90;;;;;;5031891;28;20130;-82
2022/12/11 08:23:57;;;;;;;78.90;19.73;;;0.30;99.90;;;;;;5017192;28;20060;-84
2022/12/11 08:26:30;;;;;;;70.13;17.98;;;-0.40;99.90;;;;;;5028207;28;20143;-83
2022/12/11 08:28:57;;;;;;;72.50;19.42;;;0.30;99.90;;;;;;5042667;28;20040;-83
2022/12/11 08:31:29;;;;;;;74.72;20.02;;;0.30;99.90;;;;;;5037662;28;20040;-83
2022/12/11 08:33:55;;;;;;;81.97;20.67;;;0.20;99.90;;;;;;5055201;28;20068;-83
2022/12/11 08:36:22;;;;;;;73.93;19.60;;;0.60;99.90;;;;;;5046998;28;20102;-83
2022/12/11 08:38:49;;;;;;;80.85;19.02;;;0.30;99.90;;;;;;5029585;28;20068;-83
2022/12/11 08:41:22;;;;;;;78.40;20.42;;;0.30;99.90;;;;;;5011108;28;20052;-84
2022/12/11 08:43:48;;;;;;;77.90;19.90;;;0.30;99.90;;;;;;5033041;28;20067;-84
2022/12/11 08:46:15;;;;;;;73.88;20.00;;;1.00;99.90;;;;;;5033799;28;20044;-84
2022/12/11 08:48:42;;;;;;;70.70;20.77;;;0.30;99.90;;;;;;5022780;28;20103;-84
2022/12/11 08:51:11;;;;;;;84.85;21.85;;;0.30;99.90;;;;;;5023357;28;20048;-84
2022/12/11 08:53:38;;;;;;;90.70;22.17;;;0.30;99.90;;;;;;5018899;28;20094;-84
2022/12/11 08:56:08;;;;;;;78.47;21.70;;;0.30;99.90;;;;;;5015945;28;20562;-84
2022/12/11 08:58:34;;;;;;;74.85;21.88;;;0.30;99.90;;;;;;5021458;28;20044;-85
2022/12/11 09:01:09;;;;;;;83.75;20.80;;;1.40;99.90;;;;;;5029524;28;20591;-83
2022/12/11 09:03:37;;;;;;;77.70;22.27;;;0.30;99.90;;;;;;5038237;28;20120;-84
2022/12/11 09:06:07;;;;;;;78.88;20.83;;;0.30;99.90;;;;;;5019060;28;20071;-83
2022/12/11 09:08:33;;;;;;;73.20;19.70;;;0.30;99.90;;;;;;5022459;28;20045;-84
2022/12/11 09:11:04;;;;;;;91.97;22.17;;;0.30;99.90;;;;;;5050083;28;20040;-83
2022/12/11 09:13:31;;;;;;;75.72;21.48;;;0.30;99.90;;;;;;5050098;28;20037;-84
2022/12/11 09:15:57;;;;;;;93.57;22.50;;;0.30;99.90;;;;;;5035998;28;20037;-84
2022/12/11 09:18:23;;;;;;;94.07;22.92;;;1.20;99.90;;;;;;5034342;28;20037;-84
2022/12/11 09:21:07;;;;;;;81.70;21.17;;;0.30;99.90;;;;;;5058722;28;20052;-84
2022/12/11 09:23:33;;;;;;;91.57;23.92;;;0.40;99.90;;;;;;5019936;28;20048;-84
2022/12/11 09:26:02;;;;;;;83.47;20.95;;;0.30;99.90;;;;;;5015849;28;20094;-84
2022/12/11 09:28:29;;;;;;;81.32;21.40;;;-0.20;99.90;;;;;;5021161;28;20049;-84
2022/12/11 09:30:55;;;;;;;91.18;22.45;;;0.30;99.90;;;;;;5038206;28;20066;-85
2022/12/11 09:33:21;;;;;;;86.80;21.90;;;0.30;99.90;;;;;;5053912;28;20255;-85
2022/12/11 09:35:56;;;;;;;89.32;22.55;;;0.60;99.90;;;;;;5022068;28;20045;-85
2022/12/11 09:38:22;;;;;;;85.75;22.00;;;0.90;99.90;;;;;;5029228;28;20105;-85
2022/12/11 09:40:48;;;;;;;87.32;21.67;;;0.30;99.90;;;;;;5036289;28;20505;-85
2022/12/11 09:43:38;;;;;;;81.07;22.30;;;0.40;99.90;;;;;;5041746;28;20055;-84
2022/12/11 09:46:08;;;;;;;82.55;21.48;;;0.30;99.90;;;;;;5046012;28;20055;-85
2022/12/11 09:48:34;;;;;;;88.35;21.90;;;1.20;99.90;;;;;;5035820;28;20056;-85
2022/12/11 09:51:09;;;;;;;89.45;23.30;;;0.40;99.90;;;;;;5056476;28;20040;-85
2022/12/11 09:53:37;;;;;;;95.80;22.40;;;0.40;99.90;;;;;;5015387;28;20044;-84
2022/12/11 09:56:16;;;;;;;91.72;21.95;;;0.40;99.90;;;;;;5058645;28;20047;-85
2022/12/11 09:59:02;;;;;;;83.60;22.65;;;0.40;99.90;;;;;;5041328;28;20041;-85
2022/12/11 10:01:30;;;;;;;87.82;22.20;;;0.40;99.90;;;;;;5018682;28;20072;-85
2022/12/11 10:03:56;;;;;;;97.40;23.38;;;0.40;99.90;;;;;;5019614;28;20507;-85
2022/12/11 10:06:22;;;;;;;85.13;22.85;;;0.40;99.90;;;;;;5034448;28;20044;-85
2022/12/11 10:09:26;;;;;;;106.63;24.05;;;0.40;99.90;;;;;;5036016;28;20861;-85
2022/12/11 10:12:05;;;;;;;83.00;20.55;;;0.40;99.90;;;;;;4976645;28;20038;-85
2022/12/11 10:14:34;;;;;;;89.22;22.73;;;0.40;99.90;;;;;;5015744;28;20079;-84
2022/12/11 10:17:14;;;;;;;91.65;22.02;;;0.40;99.90;;;;;;5044432;28;20507;-85
2022/12/11 10:19:41;;;;;;;89.72;23.67;;;0.40;99.90;;;;;;5041478;28;20041;-85
2022/12/11 10:22:23;;;;;;;84.93;23.17;;;1.10;99.90;;;;;;5022996;28;20490;-84
2022/12/11 10:24:55;;;;;;;94.38;23.27;;;0.40;99.90;;;;;;5022618;28;20199;-85
2022/12/11 10:27:30;;;;;;;81.85;22.98;;;0.40;99.90;;;;;;5018635;28;20044;-85
2022/12/11 10:30:20;;;;;;;88.75;23.88;;;0.50;99.90;;;;;;5033180;28;20055;-84
2022/12/11 10:33:21;;;;;;;89.82;23.00;;;0.50;99.90;;;;;;5019682;28;20045;-84
2022/12/11 10:35:49;;;;;;;101.93;23.80;;;0.50;99.90;;;;;;5001146;28;20060;-84
2022/12/11 10:38:26;;;;;;;94.35;22.83;;;0.50;99.90;;;;;;5027900;28;20041;-84
2022/12/11 10:41:12;;;;;;;81.20;24.05;;;0.50;99.90;;;;;;5037738;28;20045;-84
2022/12/11 10:43:41;;;;;;;91.78;24.35;;;1.10;99.90;;;;;;5034267;28;20091;-85
2022/12/11 10:46:18;;;;;;;93.65;25.33;;;0.50;99.90;;;;;;5018394;28;20757;-84
2022/12/11 10:48:49;;;;;;;89.57;25.30;;;0.50;99.90;;;;;;5027028;28;20604;-85
2022/12/11 10:51:15;;;;;;;84.40;24.15;;;0.50;99.90;;;;;;4995075;28;20666;-84
2022/12/11 10:53:43;;;;;;;83.45;23.73;;;1.50;99.90;;;;;;5016905;28;20048;-84
2022/12/11 10:56:10;;;;;;;96.03;25.23;;;1.50;99.90;;;;;;4998634;28;20127;-85
2022/12/11 10:58:47;;;;;;;91.07;23.77;;;0.60;99.90;;;;;;5014169;28;20080;-84
2022/12/11 11:01:15;;;;;;;89.18;22.92;;;0.80;99.90;;;;;;5016238;28;20593;-84
2022/12/11 11:04:13;;;;;;;86.43;24.48;;;0.60;99.90;;;;;;5000800;28;20080;-85
2022/12/11 11:06:39;;;;;;;93.20;24.95;;;0.60;99.90;;;;;;5017589;28;20679;-85
2022/12/11 11:09:35;;;;;;;90.75;24.85;;;0.60;99.90;;;;;;5017933;28;20076;-85
2022/12/11 11:12:02;;;;;;;77.50;23.33;;;0.60;99.90;;;;;;5019041;28;20103;-85
2022/12/11 11:14:28;;;;;;;86.43;24.10;;;0.60;99.90;;;;;;5020146;28;20099;-85
2022/12/11 11:16:59;;;;;;;99.85;25.35;;;0.60;99.90;;;;;;4999201;28;20057;-83
2022/12/11 11:19:31;;;;;;;97.53;25.73;;;0.60;99.90;;;;;;5007544;28;20156;-82
2022/12/11 11:22:01;;;;;;;83.47;25.42;;;0.60;99.90;;;;;;5034685;28;20831;-83
2022/12/11 11:24:34;;;;;;;78.68;23.27;;;0.70;99.90;;;;;;5017368;28;20118;-82
2022/12/11 11:27:01;;;;;;;86.32;25.05;;;0.60;99.90;;;;;;5016135;28;20509;-82
2022/12/11 11:29:33;;;;;;;88.20;24.75;;;0.70;99.90;;;;;;4996291;28;20050;-82
2022/12/11 11:32:25;;;;;;;80.85;24.88;;;0.70;99.90;;;;;;5029264;28;20527;-82
2022/12/11 11:34:51;;;;;;;79.80;25.73;;;0.70;99.90;;;;;;4999968;28;20041;-83
2022/12/11 11:37:31;;;;;;;83.20;23.25;;;0.70;99.90;;;;;;5005242;28;20053;-82
2022/12/11 11:40:07;;;;;;;85.13;23.80;;;0.70;99.90;;;;;;5016222;28;20041;-82
2022/12/11 11:43:00;;;;;;;84.40;25.00;;;0.70;99.90;;;;;;5011155;28;20041;-82
2022/12/11 11:45:32;;;;;;;77.88;23.10;;;0.70;99.90;;;;;;5012043;28;20084;-82
2022/12/11 11:48:02;;;;;;;77.90;24.23;;;1.10;99.90;;;;;;4993154;28;20046;-83
2022/12/11 11:50:34;;;;;;;86.20;23.77;;;0.90;99.90;;;;;;5026074;28;20045;-83
2022/12/11 11:53:21;;;;;;;77.00;23.48;;;0.80;99.90;;;;;;5031797;28;20075;-84
2022/12/11 11:56:06;;;;;;;68.72;21.63;;;1.10;99.90;;;;;;5045030;28;20052;-83
2022/12/11 11:59:01;;;;;;;74.90;21.88;;;0.80;99.90;;;;;;5013616;28;20811;-89
2022/12/11 12:01:28;;;;;;;72.45;23.23;;;0.80;99.90;;;;;;5021307;28;20055;-84
2022/12/11 12:03:55;;;;;;;76.38;22.63;;;0.80;99.90;;;;;;5032681;28;20576;-83
2022/12/11 12:06:39;;;;;;;74.10;22.52;;;0.80;99.90;;;;;;5015512;28;20056;-83
2022/12/11 12:09:18;;;;;;;70.45;21.38;;;0.80;99.90;;;;;;5014732;28;20182;-84
2022/12/11 12:12:08;;;;;;;67.60;21.25;;;0.80;99.90;;;;;;5041701;28;20821;-83
2022/12/11 12:14:54;;;;;;;75.18;22.92;;;0.90;99.90;;;;;;5009967;28;20041;-84
2022/12/11 12:17:36;;;;;;;79.63;23.45;;;0.90;99.90;;;;;;5032022;28;20048;-84
2022/12/11 12:20:13;;;;;;;70.40;24.08;;;0.80;99.90;;;;;;5004300;28;20071;-84
2022/12/11 12:22:58;;;;;;;77.55;22.65;;;0.80;99.90;;;;;;5043825;28;20544;-84
2022/12/11 12:25:40;;;;;;;69.82;22.48;;;0.80;99.90;;;;;;5008378;28;20079;-84
2022/12/11 12:28:36;;;;;;;75.85;22.88;;;2.00;99.90;;;;;;5007244;28;22406;-84
2022/12/11 12:31:33;;;;;;;67.78;22.15;;;0.80;99.90;;;;;;5009749;28;20119;-84
2022/12/11 12:34:06;;;;;;;65.60;22.30;;;0.80;99.90;;;;;;5005194;28;20549;-84
2022/12/11 12:37:03;;;;;;;78.32;22.27;;;1.00;99.90;;;;;;5022097;28;20468;-83
2022/12/11 12:39:29;;;;;;;67.47;21.33;;;0.90;99.90;;;;;;5041185;28;20045;-83
2022/12/11 12:42:08;;;;;;;65.55;19.63;;;0.80;99.90;;;;;;5025074;28;20142;-84
2022/12/11 12:44:58;;;;;;;65.55;22.30;;;0.80;99.90;;;;;;5030985;28;20045;-84
2022/12/11 12:47:26;;;;;;;67.22;20.88;;;0.90;99.90;;;;;;5033317;28;20041;-83
2022/12/11 12:49:54;;;;;;;64.00;22.40;;;0.90;99.90;;;;;;5032111;28;20630;-83
2022/12/11 12:52:34;;;;;;;63.17;20.48;;;0.90;99.90;;;;;;5028615;28;20158;-84
2022/12/11 12:55:17;;;;;;;68.30;21.77;;;0.90;99.90;;;;;;5026395;28;20672;-83